Time;durP1;ratioP1;P1;durP2;ratioP2;P2;SDS_P1;SDS_P2;PMS_P1;PMS_P2;Temp;Humidity;BMP_temperature;BMP_pressure;BME280_temperature;BME280_humidity;BME280_pressure;Samples;Min_cycle;Max_cycle;Signal;HPM_P1;HPM_P2
2023/10/10 00:00:27;;;;;;;10.73;5.53;;;14.50;99.90;;;;;;5115750;27;20383;-75
2023/10/10 00:02:54;;;;;;;11.38;5.15;;;14.50;99.90;;;;;;5115161;27;20048;-75
2023/10/10 00:05:33;;;;;;;8.95;5.38;;;14.50;99.90;;;;;;5115702;27;20047;-74
2023/10/10 00:08:02;;;;;;;8.73;5.70;;;14.50;99.90;;;;;;5133584;27;20046;-74
2023/10/10 00:10:31;;;;;;;9.65;5.07;;;14.60;99.90;;;;;;5115749;27;20075;-73
2023/10/10 00:13:00;;;;;;;9.43;4.90;;;14.50;99.90;;;;;;5115486;27;20127;-73
2023/10/10 00:15:33;;;;;;;10.38;5.88;;;14.60;99.90;;;;;;5114826;27;20448;-75
2023/10/10 00:18:03;;;;;;;16.58;6.38;;;14.50;99.90;;;;;;5135155;27;20099;-74
2023/10/10 00:20:41;;;;;;;10.45;6.07;;;14.50;99.90;;;;;;5134937;27;20042;-74
2023/10/10 00:23:10;;;;;;;12.93;5.65;;;14.60;99.90;;;;;;5134156;27;20559;-73
2023/10/10 00:25:38;;;;;;;9.40;5.70;;;14.60;99.90;;;;;;5134617;27;20039;-74
2023/10/10 00:28:17;;;;;;;12.43;6.38;;;14.60;99.90;;;;;;5134743;27;20054;-74
2023/10/10 00:30:46;;;;;;;9.00;5.05;;;14.60;99.90;;;;;;5133407;27;20054;-74
2023/10/10 00:33:16;;;;;;;8.23;5.55;;;14.60;99.90;;;;;;5138152;27;20501;-75
2023/10/10 00:35:44;;;;;;;9.90;5.28;;;14.60;99.90;;;;;;5138888;27;20054;-74
2023/10/10 00:38:17;;;;;;;12.05;6.00;;;14.60;99.90;;;;;;5138639;27;20047;-75
2023/10/10 00:40:47;;;;;;;10.75;5.50;;;14.60;99.90;;;;;;5119558;27;20050;-75
2023/10/10 00:43:16;;;;;;;7.25;5.03;;;14.60;99.90;;;;;;5119023;27;20487;-75
2023/10/10 00:45:52;;;;;;;9.40;5.30;;;14.60;99.90;;;;;;5124087;27;20091;-76
2023/10/10 00:48:22;;;;;;;8.00;5.35;;;14.70;99.90;;;;;;5138734;27;20221;-77
2023/10/10 00:50:51;;;;;;;7.78;5.45;;;14.70;99.90;;;;;;5156568;27;20065;-76
2023/10/10 00:53:21;;;;;;;9.02;6.00;;;14.70;99.90;;;;;;5136248;27;20050;-77
2023/10/10 00:55:55;;;;;;;10.05;4.85;;;14.60;99.90;;;;;;5156868;27;20050;-75
2023/10/10 00:58:25;;;;;;;10.15;5.50;;;14.60;99.90;;;;;;5137755;27;20057;-76
2023/10/10 01:00:55;;;;;;;10.77;5.78;;;14.60;99.90;;;;;;5138297;27;20095;-76
2023/10/10 01:03:22;;;;;;;17.30;6.05;;;14.60;99.90;;;;;;5138507;27;20141;-76
2023/10/10 01:05:53;;;;;;;12.05;5.60;;;14.60;99.90;;;;;;5137862;27;20133;-76
2023/10/10 01:08:20;;;;;;;;;;;14.70;99.90;;;;;;5138989;27;20050;-76
2023/10/10 01:10:49;;;;;;;11.07;5.47;;;14.70;99.90;;;;;;5156646;27;20326;-76
2023/10/10 01:13:17;;;;;;;9.73;5.47;;;14.70;99.90;;;;;;5156486;27;20065;-75
2023/10/10 01:15:48;;;;;;;14.23;6.10;;;14.70;99.90;;;;;;5118527;27;20047;-75
2023/10/10 01:18:17;;;;;;;11.35;5.85;;;14.70;99.90;;;;;;5117543;27;20069;-75
2023/10/10 01:20:46;;;;;;;11.77;5.63;;;14.70;99.90;;;;;;5118695;27;20507;-75
2023/10/10 01:23:15;;;;;;;9.55;5.78;;;14.70;99.90;;;;;;5136513;27;20053;-75
2023/10/10 01:25:44;;;;;;;11.93;6.05;;;14.70;99.90;;;;;;5137614;27;20039;-74
2023/10/10 01:28:23;;;;;;;12.93;5.57;;;14.70;99.90;;;;;;5138152;27;20410;-75
2023/10/10 01:31:03;;;;;;;10.27;5.82;;;14.70;99.90;;;;;;5128512;27;20030;-75
2023/10/10 01:33:42;;;;;;;9.93;6.00;;;14.70;99.90;;;;;;5137641;27;20042;-75
2023/10/10 01:36:19;;;;;;;11.00;6.25;;;14.70;99.90;;;;;;5154705;27;20049;-75
2023/10/10 01:39:21;;;;;;;12.30;6.15;;;14.70;99.90;;;;;;5118295;27;20502;-75
2023/10/10 01:41:50;;;;;;;12.07;5.75;;;14.70;99.90;;;;;;5137507;27;20461;-75
2023/10/10 01:44:19;;;;;;;11.38;5.72;;;14.80;99.90;;;;;;5137912;27;20101;-75
2023/10/10 01:46:46;;;;;;;9.48;5.72;;;14.80;99.90;;;;;;5136875;27;20538;-75
2023/10/10 01:49:14;;;;;;;10.30;5.50;;;14.80;99.90;;;;;;5137406;27;20129;-73
2023/10/10 01:51:44;;;;;;;10.10;4.72;;;14.80;99.90;;;;;;5137792;27;20379;-74
2023/10/10 01:54:17;;;;;;;11.63;6.17;;;14.80;99.90;;;;;;5130493;27;20544;-74
2023/10/10 01:56:44;;;;;;;12.80;6.75;;;14.80;99.90;;;;;;5137365;27;20039;-74
2023/10/10 01:59:14;;;;;;;11.45;6.07;;;14.80;99.90;;;;;;5137371;27;20054;-75
2023/10/10 02:01:42;;;;;;;11.85;6.35;;;14.80;99.90;;;;;;5136878;27;20438;-75
2023/10/10 02:04:10;;;;;;;16.40;6.25;;;14.90;99.90;;;;;;5137238;27;20723;-74
2023/10/10 02:06:39;;;;;;;12.18;6.43;;;14.90;99.90;;;;;;5137279;27;20367;-74
2023/10/10 02:09:27;;;;;;;10.52;6.07;;;14.90;99.90;;;;;;5136518;27;20050;-74
2023/10/10 02:11:55;;;;;;;12.07;6.95;;;14.90;99.90;;;;;;5136858;27;20095;-76
2023/10/10 02:14:25;;;;;;;9.60;5.55;;;14.90;99.90;;;;;;5136509;27;20048;-75
2023/10/10 02:16:55;;;;;;;11.77;6.55;;;14.90;99.90;;;;;;5136676;27;20049;-75
2023/10/10 02:19:27;;;;;;;11.27;6.35;;;14.90;99.90;;;;;;5136883;27;20133;-75
2023/10/10 02:22:12;;;;;;;17.05;6.10;;;14.90;99.90;;;;;;5136524;27;20142;-75
2023/10/10 02:24:41;;;;;;;9.02;5.90;;;14.90;99.90;;;;;;5136815;27;20050;-77
2023/10/10 02:27:13;;;;;;;13.82;6.43;;;14.90;99.90;;;;;;5136930;27;20126;-75
2023/10/10 02:29:48;;;;;;;13.82;6.78;;;14.90;99.90;;;;;;5136193;27;20129;-75
2023/10/10 02:32:19;;;;;;;14.10;6.93;;;14.80;99.90;;;;;;5136868;27;20086;-76
2023/10/10 02:34:55;;;;;;;11.35;6.18;;;14.70;99.90;;;;;;5136588;27;20051;-76
2023/10/10 02:40:14;;;;;;;13.75;6.97;;;14.70;99.90;;;;;;5135896;27;20049;-76
2023/10/10 02:42:49;;;;;;;15.75;7.97;;;14.70;99.90;;;;;;5116743;27;20047;-76
2023/10/10 02:45:17;;;;;;;11.57;6.95;;;14.70;99.90;;;;;;5135172;27;20042;-76
2023/10/10 02:47:52;;;;;;;12.07;7.55;;;14.70;99.90;;;;;;5136472;27;20375;-76
2023/10/10 02:53:07;;;;;;;21.30;7.80;;;14.70;99.90;;;;;;5135699;27;20047;-75
2023/10/10 02:55:40;;;;;;;11.85;7.68;;;14.70;99.90;;;;;;5135728;27;20039;-75
2023/10/10 02:58:20;;;;;;;12.25;7.38;;;14.80;99.90;;;;;;5135888;27;20406;-75
2023/10/10 03:00:48;;;;;;;12.02;7.45;;;14.80;99.90;;;;;;5136345;27;20150;-76
2023/10/10 03:03:18;;;;;;;12.52;8.20;;;14.80;99.90;;;;;;5136351;27;20129;-76
2023/10/10 03:05:50;;;;;;;13.67;6.90;;;14.80;99.90;;;;;;5135799;27;20085;-77
2023/10/10 03:08:34;;;;;;;13.40;7.72;;;14.70;99.90;;;;;;5134692;27;20288;-76
2023/10/10 03:11:14;;;;;;;11.80;8.05;;;14.70;99.90;;;;;;5135345;27;20051;-75
2023/10/10 03:13:48;;;;;;;17.25;8.10;;;14.70;99.90;;;;;;5136143;27;20091;-75
2023/10/10 03:16:43;;;;;;;11.45;8.02;;;14.80;99.90;;;;;;5116372;27;20045;-76
2023/10/10 03:19:13;;;;;;;12.20;7.22;;;14.80;99.90;;;;;;5133910;27;20043;-77
2023/10/10 03:21:50;;;;;;;12.65;7.65;;;14.80;99.90;;;;;;5135790;27;20038;-76
2023/10/10 03:24:36;;;;;;;10.57;8.00;;;14.80;99.90;;;;;;5135940;27;20129;-75
2023/10/10 03:27:48;;;;;;;14.82;7.72;;;14.80;99.90;;;;;;5135595;27;20038;-74
2023/10/10 03:30:17;;;;;;;13.68;7.60;;;14.80;99.90;;;;;;5135417;27;20055;-75
2023/10/10 03:35:33;;;;;;;13.60;7.93;;;14.80;99.90;;;;;;5121841;27;20131;-76
2023/10/10 03:38:25;;;;;;;10.45;7.68;;;14.80;99.90;;;;;;5135381;27;20367;-75
2023/10/10 03:41:24;;;;;;;10.27;7.03;;;14.80;99.90;;;;;;5153048;27;20514;-75
2023/10/10 05:25:41;;;;;;;15.00;8.77;;;14.80;99.90;;;;;;5118069;27;20043;-73
2023/10/10 05:28:09;;;;;;;12.57;8.85;;;14.80;99.90;;;;;;5126354;27;20444;-72
2023/10/10 05:30:44;;;;;;;19.70;9.50;;;14.80;99.90;;;;;;5137644;27;20039;-72
2023/10/10 05:33:12;;;;;;;18.02;9.30;;;14.80;99.90;;;;;;5121431;27;20054;-72
2023/10/10 05:35:43;;;;;;;16.85;9.85;;;14.80;99.90;;;;;;5121728;27;20108;-73
2023/10/10 05:38:12;;;;;;;15.82;10.30;;;14.70;99.90;;;;;;5120869;27;20051;-73
2023/10/10 05:40:39;;;;;;;22.90;12.70;;;14.80;99.90;;;;;;5119262;27;20043;-72
2023/10/10 05:43:09;;;;;;;20.65;11.70;;;14.70;99.90;;;;;;5148297;27;20405;-73
2023/10/10 05:45:37;;;;;;;18.58;11.70;;;14.80;99.90;;;;;;5127577;27;20054;-72
2023/10/10 05:48:05;;;;;;;23.80;13.18;;;14.70;99.90;;;;;;5123879;27;20043;-72
2023/10/10 05:50:32;;;;;;;23.95;13.65;;;14.70;99.90;;;;;;5122168;27;20126;-72
2023/10/10 05:53:00;;;;;;;22.60;13.77;;;14.70;99.90;;;;;;5135687;27;20047;-72
2023/10/10 05:55:33;;;;;;;25.08;16.25;;;14.70;99.90;;;;;;5120119;27;20054;-71
2023/10/10 05:58:02;;;;;;;28.45;16.77;;;14.70;99.90;;;;;;5149642;27;20387;-71
2023/10/10 06:00:32;;;;;;;41.00;18.98;;;14.80;99.90;;;;;;5132052;27;20101;-72
2023/10/10 06:02:59;;;;;;;31.65;17.55;;;14.80;99.90;;;;;;5119252;27;20045;-71
2023/10/10 06:05:29;;;;;;;26.67;17.77;;;14.80;99.90;;;;;;5127127;27;20483;-71
2023/10/10 06:07:58;;;;;;;27.50;18.30;;;14.80;99.90;;;;;;5122715;27;20436;-72
2023/10/10 06:10:31;;;;;;;35.10;18.88;;;14.80;99.90;;;;;;5126873;27;20050;-71
2023/10/10 06:13:03;;;;;;;31.35;19.60;;;14.80;99.90;;;;;;5127672;27;20043;-70
2023/10/10 06:15:33;;;;;;;31.70;18.25;;;14.80;99.90;;;;;;5117933;27;20562;-72
2023/10/10 06:18:08;;;;;;;36.88;19.42;;;14.80;99.90;;;;;;5131652;27;20559;-71
2023/10/10 06:20:40;;;;;;;28.55;16.75;;;14.90;99.90;;;;;;5120158;27;20051;-71
2023/10/10 06:23:08;;;;;;;29.98;17.38;;;14.90;99.90;;;;;;5116111;27;20505;-70
2023/10/10 06:25:38;;;;;;;36.90;19.45;;;14.90;99.90;;;;;;5146827;27;20050;-72
2023/10/10 06:28:18;;;;;;;31.58;18.70;;;14.90;99.90;;;;;;5122457;27;20051;-72
2023/10/10 06:30:47;;;;;;;35.30;20.52;;;14.90;99.90;;;;;;5135032;27;20410;-70
2023/10/10 06:33:15;;;;;;;30.27;17.55;;;14.90;99.90;;;;;;5129916;27;20444;-71
2023/10/10 06:35:52;;;;;;;34.70;17.73;;;14.90;99.90;;;;;;5135993;27;20042;-71
2023/10/10 06:38:24;;;;;;;31.67;17.50;;;14.90;99.90;;;;;;5128804;27;20551;-71
2023/10/10 06:40:56;;;;;;;28.17;18.10;;;15.00;99.90;;;;;;5138726;27;20042;-71
2023/10/10 06:43:24;;;;;;;29.40;17.92;;;15.00;99.90;;;;;;5116360;27;20054;-71
2023/10/10 06:45:54;;;;;;;31.65;17.75;;;15.00;99.90;;;;;;5122905;27;20047;-71
2023/10/10 06:48:22;;;;;;;27.88;18.42;;;15.10;99.90;;;;;;5124228;27;20505;-71
2023/10/10 06:50:50;;;;;;;28.75;16.52;;;15.10;99.90;;;;;;5123359;27;20047;-72
2023/10/10 06:53:35;;;;;;;28.50;16.27;;;15.10;99.90;;;;;;5147760;27;20495;-72
2023/10/10 06:56:15;;;;;;;29.27;16.95;;;15.20;99.90;;;;;;5120221;27;20101;-71
2023/10/10 06:58:47;;;;;;;;;;;15.30;99.90;;;;;;5123092;27;20054;-71
2023/10/10 07:01:19;;;;;;;29.67;16.52;;;15.30;99.90;;;;;;5119275;27;19919;-73
2023/10/10 07:03:54;;;;;;;24.80;14.90;;;15.40;99.90;;;;;;5122642;27;20057;-72
2023/10/10 07:06:21;;;;;;;28.58;16.15;;;15.40;99.90;;;;;;5154186;27;20525;-72
2023/10/10 07:09:03;;;;;;;26.35;15.77;;;15.50;99.90;;;;;;5135478;27;20513;-71
2023/10/10 07:11:30;;;;;;;24.70;14.13;;;15.50;99.90;;;;;;5134972;27;20062;-71
2023/10/10 07:13:59;;;;;;;23.75;14.20;;;15.60;99.90;;;;;;5135402;27;20042;-72
2023/10/10 07:16:26;;;;;;;24.75;14.07;;;15.70;99.90;;;;;;5135574;27;20045;-72
2023/10/10 07:18:56;;;;;;;23.65;13.60;;;15.80;99.90;;;;;;5127958;27;20046;-72
2023/10/10 07:21:30;;;;;;;18.98;14.32;;;15.90;99.90;;;;;;5128937;27;20096;-71
2023/10/10 07:24:05;;;;;;;21.02;13.07;;;16.20;99.90;;;;;;5134864;27;20066;-72
2023/10/10 07:26:41;;;;;;;22.52;13.70;;;16.30;99.90;;;;;;5134150;27;20053;-71
2023/10/10 07:29:27;;;;;;;17.77;12.63;;;16.30;99.90;;;;;;5135294;27;20046;-71
2023/10/10 07:32:04;;;;;;;17.25;13.02;;;16.40;99.90;;;;;;5119916;27;20050;-71
2023/10/10 07:34:38;;;;;;;18.58;11.63;;;16.50;99.90;;;;;;5135266;27;20109;-72
2023/10/10 07:37:08;;;;;;;16.50;11.75;;;16.70;99.90;;;;;;5135036;27;20039;-71
2023/10/10 07:39:36;;;;;;;15.20;11.30;;;17.00;99.90;;;;;;5134446;27;20047;-71
2023/10/10 07:42:08;;;;;;;14.27;11.07;;;17.30;99.90;;;;;;5135001;27;20070;-71
2023/10/10 07:44:38;;;;;;;18.02;11.52;;;17.60;99.90;;;;;;5116726;27;20134;-71
2023/10/10 07:47:19;;;;;;;16.53;11.60;;;17.80;99.90;;;;;;5132438;27;20039;-71
2023/10/10 07:49:50;;;;;;;18.15;12.98;;;17.70;99.90;;;;;;5134598;27;20300;-72
2023/10/10 07:52:20;;;;;;;19.75;13.40;;;17.50;99.90;;;;;;5133254;27;20166;-72
2023/10/10 07:54:51;;;;;;;27.55;16.50;;;17.50;99.90;;;;;;5122592;27;20054;-71
2023/10/10 07:57:22;;;;;;;24.33;16.13;;;17.30;99.90;;;;;;5134868;27;20504;-71
2023/10/10 07:59:54;;;;;;;25.45;16.58;;;17.30;99.90;;;;;;5131465;27;20375;-71
2023/10/10 08:02:25;;;;;;;25.48;16.38;;;17.30;99.90;;;;;;5134389;27;20158;-71
2023/10/10 08:04:53;;;;;;;24.42;16.33;;;17.40;99.90;;;;;;5153361;27;20034;-70
2023/10/10 08:07:22;;;;;;;28.60;18.33;;;17.50;99.90;;;;;;5134421;27;20398;-71
2023/10/10 08:09:49;;;;;;;29.38;18.25;;;17.70;99.90;;;;;;5150643;27;20050;-71
2023/10/10 08:12:17;;;;;;;27.33;16.80;;;17.80;99.90;;;;;;5134454;27;20056;-72
2023/10/10 08:14:44;;;;;;;29.65;17.83;;;17.80;99.90;;;;;;5133529;27;20042;-70
2023/10/10 08:17:19;;;;;;;26.77;17.80;;;17.90;99.90;;;;;;5134540;27;20498;-72
2023/10/10 08:19:51;;;;;;;26.80;17.67;;;17.90;99.90;;;;;;5126238;27;20042;-71
2023/10/10 08:22:19;;;;;;;29.58;19.25;;;17.90;99.90;;;;;;5133763;27;20039;-71
2023/10/10 08:24:46;;;;;;;29.35;19.02;;;17.90;99.90;;;;;;5125672;27;20047;-71
2023/10/10 08:27:14;;;;;;;31.45;19.63;;;17.90;99.90;;;;;;5116142;27;20039;-71
2023/10/10 08:29:41;;;;;;;31.13;19.45;;;17.80;99.90;;;;;;5133955;27;20272;-71
2023/10/10 08:32:08;;;;;;;32.25;17.92;;;18.00;99.90;;;;;;5128217;27;20051;-71
2023/10/10 08:34:38;;;;;;;31.48;18.85;;;18.10;99.90;;;;;;5131563;27;20559;-71
2023/10/10 08:37:08;;;;;;;31.15;18.75;;;18.40;99.90;;;;;;5134178;27;20047;-71
2023/10/10 08:39:36;;;;;;;28.60;18.95;;;18.80;99.90;;;;;;5122570;27;20077;-71
2023/10/10 08:42:10;;;;;;;27.33;17.38;;;19.20;99.90;;;;;;5131912;27;20054;-71
2023/10/10 08:44:39;;;;;;;25.02;16.75;;;19.40;99.90;;;;;;5134215;27;20047;-69
2023/10/10 08:47:08;;;;;;;24.10;16.55;;;19.50;99.90;;;;;;5127036;27;20043;-71
2023/10/10 08:49:37;;;;;;;25.55;16.83;;;19.40;99.90;;;;;;5118733;28;20048;-71
2023/10/10 08:52:04;;;;;;;27.92;17.95;;;19.70;99.90;;;;;;5110768;28;20101;-71
2023/10/10 08:54:33;;;;;;;25.63;17.25;;;20.30;99.90;;;;;;5114404;28;20058;-72
2023/10/10 08:57:03;;;;;;;26.60;18.23;;;20.90;99.90;;;;;;5115870;28;20043;-71
2023/10/10 08:59:31;;;;;;;29.10;17.58;;;21.30;99.90;;;;;;5115805;28;20104;-72
2023/10/10 09:02:09;;;;;;;27.67;16.73;;;21.50;99.90;;;;;;5115131;28;20479;-71
2023/10/10 09:04:38;;;;;;;25.17;17.60;;;21.50;99.90;;;;;;5112133;28;20048;-71
2023/10/10 09:07:20;;;;;;;25.40;17.38;;;21.50;99.90;;;;;;5115907;28;20510;-71
2023/10/10 09:09:54;;;;;;;27.67;17.27;;;21.40;99.90;;;;;;5112429;28;20126;-71
2023/10/10 09:12:21;;;;;;;26.80;18.20;;;21.30;99.90;;;;;;5114978;28;20052;-71
2023/10/10 09:14:50;;;;;;;30.40;19.27;;;21.50;99.90;;;;;;5114868;28;20051;-71
2023/10/10 09:17:28;;;;;;;32.15;17.83;;;22.00;99.90;;;;;;5114146;28;20039;-71
2023/10/10 09:19:58;;;;;;;24.08;17.52;;;22.20;99.90;;;;;;5114453;28;20445;-71
2023/10/10 09:22:34;;;;;;;28.80;19.70;;;22.10;99.90;;;;;;5111972;28;20051;-72
2023/10/10 09:25:17;;;;;;;30.52;20.17;;;22.10;99.90;;;;;;5109624;28;20126;-71
2023/10/10 09:27:57;;;;;;;30.73;20.90;;;22.20;99.90;;;;;;5114499;28;20046;-72
2023/10/10 09:30:32;;;;;;;27.42;20.67;;;22.20;99.90;;;;;;5114349;28;20096;-72
2023/10/10 09:33:03;;;;;;;30.02;20.13;;;22.70;99.90;;;;;;5114347;28;20048;-71
2023/10/10 09:35:39;;;;;;;32.40;21.10;;;23.00;99.90;;;;;;5113933;28;20044;-71
2023/10/10 09:38:12;;;;;;;31.23;20.95;;;23.50;99.90;;;;;;5113429;28;20085;-71
2023/10/10 09:40:40;;;;;;;30.30;20.52;;;23.50;99.90;;;;;;5113940;28;20051;-71
2023/10/10 09:43:23;;;;;;;30.02;20.40;;;23.40;99.90;;;;;;5114351;28;20506;-71
2023/10/10 09:45:58;;;;;;;31.80;20.27;;;23.10;99.90;;;;;;5113641;28;20139;-71
2023/10/10 09:52:47;;;;;;;27.98;20.05;;;23.70;99.90;;;;;;5130948;27;20500;-71
2023/10/10 09:54:25;;;;;;;31.67;20.45;;;23.80;99.90;;;;;;5119237;27;20099;-72
2023/10/10 09:56:53;;;;;;;29.15;21.58;;;23.50;99.90;;;;;;5133671;27;20509;-72
2023/10/10 09:59:28;;;;;;;30.73;21.25;;;23.50;99.90;;;;;;5133335;27;20061;-72
2023/10/10 10:02:04;;;;;;;33.15;20.70;;;23.30;99.90;;;;;;5132918;27;20049;-71
2023/10/10 10:04:44;;;;;;;26.95;18.90;;;23.30;99.90;;;;;;5116545;27;20044;-71
2023/10/10 10:07:41;;;;;;;34.65;20.67;;;23.40;99.90;;;;;;5133052;27;20509;-72
2023/10/10 10:10:22;;;;;;;31.85;20.70;;;23.60;99.90;;;;;;5133371;27;20088;-71
2023/10/10 10:13:13;;;;;;;31.88;21.10;;;23.90;99.90;;;;;;5131591;27;20055;-71
2023/10/10 10:15:54;;;;;;;28.30;19.25;;;24.60;99.90;;;;;;5118786;27;20559;-71
2023/10/10 10:18:28;;;;;;;32.03;19.75;;;25.00;99.90;;;;;;5128101;27;20043;-69
2023/10/10 10:21:16;;;;;;;27.45;19.50;;;25.30;99.90;;;;;;5117334;27;20407;-71
2023/10/10 10:23:55;;;;;;;30.30;20.10;;;25.50;99.90;;;;;;5116681;27;20126;-71
2023/10/10 10:26:31;;;;;;;29.75;20.02;;;26.00;99.90;;;;;;5120215;27;20134;-71
2023/10/10 10:29:00;;;;;;;26.75;18.13;;;26.60;99.90;;;;;;5114435;27;20074;-71
2023/10/10 10:31:37;;;;;;;28.92;20.25;;;26.90;99.90;;;;;;5119724;27;20047;-72
2023/10/10 10:34:10;;;;;;;26.42;18.27;;;27.50;99.90;;;;;;5112678;27;20055;-71
2023/10/10 10:36:42;;;;;;;27.63;17.67;;;27.60;99.90;;;;;;5114386;27;20123;-70
2023/10/10 10:39:20;;;;;;;23.90;17.77;;;28.00;99.90;;;;;;5114385;27;20126;-70
2023/10/10 10:41:53;;;;;;;28.02;17.20;;;28.00;99.90;;;;;;5114726;27;20086;-70
2023/10/10 10:44:53;;;;;;;24.42;18.30;;;27.70;99.90;;;;;;5115190;27;20039;-71
2023/10/10 10:47:53;;;;;;;24.25;17.50;;;27.90;99.30;;;;;;5103559;27;20043;-71
2023/10/10 10:50:42;;;;;;;26.88;19.10;;;28.40;99.90;;;;;;5112951;27;20051;-70
2023/10/10 10:53:30;;;;;;;27.23;18.90;;;28.00;99.40;;;;;;5112092;28;20047;-71
2023/10/10 10:59:19;;;;;;;28.27;18.05;;;27.80;99.10;;;;;;5112693;28;20107;-71
2023/10/10 11:01:57;;;;;;;24.55;18.45;;;27.60;99.90;;;;;;5108965;28;20130;-71
2023/10/10 11:04:42;;;;;;;23.63;16.27;;;27.50;99.90;;;;;;5111910;28;20055;-71
2023/10/10 11:07:32;;;;;;;23.45;17.83;;;27.40;99.90;;;;;;5113554;28;20040;-71
2023/10/10 11:10:10;;;;;;;23.20;17.02;;;27.30;99.90;;;;;;5110988;28;20381;-70
2023/10/10 11:12:38;;;;;;;25.15;17.05;;;27.00;99.90;;;;;;5111721;28;20043;-71
2023/10/10 11:15:14;;;;;;;24.17;17.80;;;26.50;99.90;;;;;;5112178;28;20082;-71
2023/10/10 11:17:50;;;;;;;34.55;18.95;;;25.60;99.90;;;;;;5111244;28;20123;-71
2023/10/10 11:20:29;;;;;;;24.58;17.52;;;25.00;99.90;;;;;;5112960;28;20096;-71
2023/10/10 11:23:08;;;;;;;27.98;18.73;;;24.80;99.90;;;;;;5112290;28;20054;-71
2023/10/10 11:25:45;;;;;;;25.33;17.53;;;24.80;99.90;;;;;;5112108;28;20051;-71
2023/10/10 11:28:24;;;;;;;24.67;16.17;;;25.10;99.90;;;;;;5111227;28;20083;-71
2023/10/10 11:30:52;;;;;;;30.35;17.95;;;25.80;99.90;;;;;;5112195;28;20147;-71
2023/10/10 11:33:55;;;;;;;25.88;17.13;;;26.40;99.90;;;;;;5111863;28;20043;-71
2023/10/10 11:36:29;;;;;;;22.33;15.98;;;27.10;99.90;;;;;;5111924;28;20055;-71
2023/10/10 11:39:16;;;;;;;22.17;15.32;;;27.80;99.90;;;;;;5110782;28;20039;-70
2023/10/10 11:41:52;;;;;;;22.83;15.32;;;28.90;99.90;;;;;;5111930;28;20392;-71
2023/10/10 11:44:21;;;;;;;27.02;16.95;;;29.80;98.60;;;;;;5111342;28;20112;-71
2023/10/10 11:46:50;;;;;;;23.38;15.55;;;28.90;96.70;;;;;;5111581;28;20197;-71
2023/10/10 11:49:25;;;;;;;22.20;15.38;;;28.30;97.90;;;;;;5114075;27;20047;-71
2023/10/10 11:51:53;;;;;;;21.05;15.70;;;28.00;98.70;;;;;;5115010;27;20062;-71
2023/10/10 11:54:25;;;;;;;20.60;15.32;;;27.70;98.70;;;;;;5120940;27;20459;-71
2023/10/10 11:56:52;;;;;;;21.38;16.17;;;27.80;99.00;;;;;;5115298;27;20051;-71
2023/10/10 11:59:20;;;;;;;24.92;16.20;;;27.90;99.00;;;;;;5118982;27;20551;-71
2023/10/10 12:02:07;;;;;;;22.60;15.75;;;27.90;98.90;;;;;;5129535;27;20058;-72
2023/10/10 12:04:36;;;;;;;22.23;15.52;;;28.30;98.30;;;;;;5119204;27;20047;-71
2023/10/10 12:07:04;;;;;;;24.23;16.60;;;28.10;98.10;;;;;;5125377;27;20053;-71
2023/10/10 12:09:31;;;;;;;23.00;16.23;;;28.30;98.30;;;;;;5127810;27;20074;-71
2023/10/10 12:12:03;;;;;;;25.65;15.95;;;28.70;97.80;;;;;;5152874;27;20051;-71
2023/10/10 12:14:42;;;;;;;25.55;16.00;;;29.10;97.40;;;;;;5129453;27;20053;-71
2023/10/10 12:17:10;;;;;;;21.65;14.98;;;28.80;97.20;;;;;;5127338;27;20050;-71
2023/10/10 12:19:43;;;;;;;18.75;15.45;;;28.00;97.90;;;;;;5152240;27;20504;-70
2023/10/10 12:22:15;;;;;;;21.17;15.48;;;27.60;98.40;;;;;;5133560;27;20051;-80
2023/10/10 12:24:53;;;;;;;20.95;15.43;;;27.00;98.80;;;;;;5152930;27;20456;-71
2023/10/10 12:27:29;;;;;;;26.38;16.33;;;26.70;99.40;;;;;;5133175;27;20074;-70
2023/10/10 12:29:58;;;;;;;24.77;15.52;;;26.50;99.70;;;;;;5136888;27;20067;-70
2023/10/10 12:32:26;;;;;;;23.23;14.38;;;26.60;99.80;;;;;;5123060;27;20047;-71
2023/10/10 12:34:53;;;;;;;19.00;14.00;;;26.90;99.90;;;;;;5131272;27;20121;-70
2023/10/10 12:37:23;;;;;;;19.02;14.00;;;27.30;99.50;;;;;;5134325;27;20091;-70
2023/10/10 12:39:51;;;;;;;22.17;14.52;;;27.70;99.10;;;;;;5134147;27;20107;-71
2023/10/10 12:42:18;;;;;;;18.17;14.30;;;27.40;99.00;;;;;;5152431;27;20510;-71
2023/10/10 12:44:47;;;;;;;18.02;12.70;;;27.10;99.20;;;;;;5115966;27;20054;-71
2023/10/10 12:47:17;;;;;;;27.35;16.60;;;26.80;99.70;;;;;;5121157;27;20055;-71
2023/10/10 12:49:45;;;;;;;18.67;14.35;;;26.00;99.90;;;;;;5119600;27;20051;-71
2023/10/10 12:52:12;;;;;;;21.48;13.60;;;25.40;99.90;;;;;;5137789;27;20059;-71
2023/10/10 12:54:41;;;;;;;21.23;13.50;;;25.10;99.90;;;;;;5118969;27;20045;-71
2023/10/10 12:57:13;;;;;;;19.38;12.82;;;25.00;99.90;;;;;;5130908;27;20099;-71
2023/10/10 12:59:46;;;;;;;19.70;13.10;;;25.20;99.90;;;;;;5118167;27;20560;-70
2023/10/10 13:02:16;;;;;;;20.02;12.18;;;24.90;99.90;;;;;;5115970;27;20055;-71
2023/10/10 13:04:46;;;;;;;19.98;13.52;;;24.60;99.90;;;;;;5125110;27;20095;-71
2023/10/10 13:07:16;;;;;;;23.77;13.35;;;24.40;99.90;;;;;;5121561;27;20486;-71
2023/10/10 13:09:46;;;;;;;25.13;14.60;;;24.00;99.90;;;;;;5114094;27;20482;-70
2023/10/10 13:12:27;;;;;;;21.08;14.18;;;23.70;99.90;;;;;;5115811;27;20129;-71
2023/10/10 13:15:05;;;;;;;21.08;13.55;;;23.70;99.90;;;;;;5114727;27;20055;-69
2023/10/10 13:17:49;;;;;;;22.70;13.65;;;24.80;99.90;;;;;;5114100;27;20043;-70
2023/10/10 13:20:18;;;;;;;18.73;12.15;;;25.90;99.90;;;;;;5127480;27;20043;-70
2023/10/10 13:22:50;;;;;;;20.40;13.52;;;26.40;99.90;;;;;;5129360;27;20090;-71
2023/10/10 13:25:18;;;;;;;16.48;11.65;;;26.10;99.90;;;;;;5132872;27;20092;-70
2023/10/10 13:27:46;;;;;;;23.02;13.02;;;25.60;99.90;;;;;;5114395;27;20051;-71
2023/10/10 13:30:14;;;;;;;20.35;13.40;;;24.80;99.90;;;;;;5119267;27;20126;-70
2023/10/10 13:32:42;;;;;;;22.67;13.35;;;24.40;99.90;;;;;;5124799;27;20078;-70
2023/10/10 13:35:10;;;;;;;21.75;12.95;;;23.90;99.90;;;;;;5131671;27;20434;-70
2023/10/10 13:37:41;;;;;;;21.05;13.50;;;23.50;99.90;;;;;;5125543;27;20047;-69
2023/10/10 13:40:09;;;;;;;22.67;13.63;;;23.20;99.90;;;;;;5131302;27;20099;-71
2023/10/10 13:42:40;;;;;;;23.38;13.50;;;22.90;99.90;;;;;;5119097;27;20042;-71
2023/10/10 13:45:11;;;;;;;23.73;14.43;;;22.70;99.90;;;;;;5119323;27;20066;-70
2023/10/10 13:47:40;;;;;;;23.50;13.38;;;22.90;99.90;;;;;;5118154;27;20051;-70
2023/10/10 13:52:53;;;;;;;20.52;13.93;;;23.20;99.90;;;;;;5113545;27;20043;-71
2023/10/10 13:55:21;;;;;;;22.65;14.57;;;23.20;99.90;;;;;;5129352;27;20042;-70
2023/10/10 13:57:49;;;;;;;23.00;14.90;;;23.40;99.90;;;;;;5146332;27;20049;-70
2023/10/10 14:00:29;;;;;;;21.23;13.48;;;23.70;99.90;;;;;;5117449;27;20043;-71
2023/10/10 14:02:59;;;;;;;23.85;14.68;;;23.80;99.90;;;;;;5117750;27;20051;-71
2023/10/10 14:05:30;;;;;;;19.15;13.77;;;23.60;99.90;;;;;;5121373;27;20047;-70
2023/10/10 14:07:57;;;;;;;23.65;15.35;;;23.30;99.90;;;;;;5122007;27;20046;-70
2023/10/10 14:10:24;;;;;;;22.83;15.00;;;22.90;99.90;;;;;;5117579;27;20100;-70
2023/10/10 14:12:51;;;;;;;23.55;15.30;;;22.60;99.90;;;;;;5147968;27;20103;-70
2023/10/10 14:15:19;;;;;;;23.02;16.27;;;22.40;99.90;;;;;;5136397;27;20074;-70
2023/10/10 14:17:47;;;;;;;28.30;14.90;;;22.20;99.90;;;;;;5136648;27;20082;-71
2023/10/10 14:20:21;;;;;;;29.98;15.63;;;22.00;99.90;;;;;;5135972;27;20111;-70
2023/10/10 14:22:50;;;;;;;29.05;15.55;;;21.90;99.90;;;;;;5136961;27;20129;-70
2023/10/10 14:25:17;;;;;;;28.73;14.85;;;21.90;99.90;;;;;;5136386;27;20050;-70
2023/10/10 14:27:44;;;;;;;23.52;16.30;;;21.80;99.90;;;;;;5154557;27;20042;-71
2023/10/10 14:30:21;;;;;;;28.08;15.88;;;21.70;99.90;;;;;;5154952;27;20050;-71
2023/10/10 14:32:53;;;;;;;22.50;15.85;;;21.60;99.90;;;;;;5124949;27;20058;-70
2023/10/10 14:35:23;;;;;;;30.17;17.27;;;21.50;99.90;;;;;;5116703;27;20053;-70
2023/10/10 14:37:56;;;;;;;24.55;16.90;;;21.50;99.90;;;;;;5135568;27;20064;-70
2023/10/10 14:40:25;;;;;;;26.23;17.67;;;21.40;99.90;;;;;;5139112;27;20083;-70
2023/10/10 14:42:53;;;;;;;26.60;16.90;;;21.30;99.90;;;;;;5121595;27;20062;-69
2023/10/10 14:45:23;;;;;;;29.08;17.58;;;21.30;99.90;;;;;;5120951;27;20141;-71
2023/10/10 14:47:51;;;;;;;24.58;17.42;;;21.20;99.90;;;;;;5120270;27;20134;-70
2023/10/10 14:50:23;;;;;;;28.25;17.33;;;21.20;99.90;;;;;;5115644;27;20050;-69
2023/10/10 14:52:52;;;;;;;25.23;17.35;;;21.20;99.90;;;;;;5120809;27;20138;-70
2023/10/10 14:55:25;;;;;;;31.05;17.52;;;21.30;99.90;;;;;;5127487;27;20129;-70
2023/10/10 14:57:54;;;;;;;28.42;17.30;;;21.40;99.90;;;;;;5128222;27;20126;-70